x

Halifax Harbour (44258) Wave Buoy

7:00am - Mon 2nd Mar 2015 All times are EST. -5 hours from GMT.

  • Sig Wave height 3.0ft
  • Peak Period 5s
  • Wind
    9mph, 11mph gusts
  • Air Temp 32°f
  • Sea Pressure 1009.5mb
  • Halifax Harbour
  • Halifax Harbour

More Historic Weather Station data

Upgrade to MSW Pro to gain access to the past 30 days of data for over 8000 Wavebouys and Weather Stations around the globe.

Join Pro

Comparision Forecast

View Surf forecast
   
Mon 03/02 7:00am 3ft 5s 9 11 mph 1009.5mb 32f
6:00am 3ft 4s 9
mph
1011.2mb 32f
5:00am 3ft 5s 9
mph
1013.5mb 31f
4:00am 3ft 4s 11 13 mph 1015.5mb 30f
3:00am 3ft 4s 16 18 mph 1017.8mb 30f
2:00am 3ft 4s 13 18 mph 1019.8mb 31f
1:00am 3.5ft 5s 16 18 mph 1021.9mb 30f
12:00am 3ft 4s 18 22 mph 1023.3mb 30f
Sun 03/01 11:00pm 3.5ft 4s 18 22 mph 1024.9mb 31f
10:00pm 3.5ft 4s 18 20 mph 1026.6mb 31f
9:00pm 3.5ft 4s 16 18 mph 1028mb 31f
8:00pm 3.5ft 4s 18 22 mph 1029.5mb 30f
7:00pm 3.5ft 4s 18 22 mph 1030.3mb 30f
6:00pm 3.5ft 4s 18 22 mph 1030.8mb 30f
5:00pm 3ft 10s 18 20 mph 1031.7mb 29f
4:00pm 2.5ft 9s 13 18 mph 1032.2mb 29f
3:00pm 2.5ft 8s 16 18 mph 1033.5mb 29f
2:00pm 2.5ft 8s 13 18 mph 1034.2mb 29f
1:00pm 2ft 10s 16 18 mph 1035.2mb 28f
12:00pm 2.5ft 8s 13 16 mph 1035.7mb 26f
11:00am 2ft 9s 13 16 mph 1036.8mb 26f
10:00am 2ft 10s 11 13 mph 1037.5mb 25f
9:00am 2ft 9s 7 9 mph 1037.9mb 24f
8:00am 2.5ft 10s 4 7 mph 1038mb 23f
7:00am 2.5ft 10s 4 7 mph 1038mb 22f
6:00am 2.5ft 9s 9 11 mph 1038.2mb 23f
5:00am 3ft 11s 11 13 mph 1038.2mb 23f
4:00am 3ft 11s 13 18 mph 1037.8mb 24f
3:00am 3.5ft 11s 13 16 mph 1037.4mb 24f
2:00am 3.5ft 10s 18 20 mph 1037.5mb 25f
1:00am 3.5ft 9s 16 20 mph 1037.6mb 25f
12:00am 3.5ft 11s 16 18 mph 1037.5mb 26f
Sat 02/28 11:00pm 3ft 11s 18 20 mph 1037.4mb 25f
10:00pm 3ft 11s 16 20 mph 1037.6mb 24f
9:00pm 3.5ft 10s 20 25 mph 1037mb 25f
8:00pm 3.5ft 10s 13 18 mph 1036.8mb 28f
7:00pm 3.5ft 11s 18 20 mph 1036.5mb 28f
5:00pm 3.5ft 11s 18 20 mph 1036.1mb 28f
4:00pm 4ft 11s 18 22 mph 1035.8mb 27f
3:00pm 4ft 10s 18 20 mph 1035.7mb 26f
2:00pm 4.5ft 11s 16 20 mph 1035.5mb 24f
1:00pm 4ft 12s 16 18 mph 1035.8mb 23f
12:00pm 4.5ft 11s 16 18 mph 1036.1mb 22f
11:00am 4.5ft 12s 11 16 mph 1036.8mb 21f
10:00am 4.5ft 12s 11 16 mph 1037mb 20f
9:00am 4.5ft 12s 2 4 mph 1036.7mb 19f
8:00am 4.5ft 12s 4 9 mph 1036.2mb 18f
7:00am 4.5ft 13s 9 11 mph 1034.9mb 18f
6:00am 5ft 12s 11 13 mph 1034mb 17f
5:00am 5ft 12s 11 13 mph 1033.6mb 18f
4:00am  -   -  13
mph
- 19f
3:00am 5ft 12s 13 16 mph 1031.7mb 19f
2:00am 5ft 12s 9 13 mph 1031mb 19f
1:00am 5ft 12s 11 13 mph 1030.6mb 20f
12:00am 4.5ft 11s 16 20 mph 1029.7mb 20f
Fri 02/27 11:00pm 5ft 12s 16 20 mph 1029.1mb 19f
10:00pm 5ft 11s 16 20 mph 1029mb 19f
9:00pm 6ft 11s 18 22 mph 1028.6mb 19f
8:00pm 6ft 12s 20 25 mph 1027.8mb 19f
7:00pm  -   -  16
mph
1026.7mb 21f
6:00pm 6ft 12s 13 18 mph 1026.2mb 22f
5:00pm 7ft 12s 16 20 mph 1024.8mb 22f
4:00pm 8ft 12s 18 20 mph 1023.9mb 23f
3:00pm 6ft 13s 16 20 mph 1023.4mb 23f
2:00pm 7ft 13s 13 18 mph 1022.7mb 23f
1:00pm 6ft 12s 13 16 mph 1022.4mb 22f
12:00pm 5ft 12s 11 16 mph 1022.4mb 20f
11:00am 4ft 12s 11 16 mph 1022.8mb 18f
10:00am 3.5ft 10s 11 18 mph 1022.5mb 15f
9:00am 3.5ft 10s 13 16 mph 1022.3mb 14f
8:00am 4ft 11s 16 18 mph 1021.5mb 14f
7:00am 3.5ft 11s 13 16 mph 1020.3mb 14f
6:00am  -   -  18
mph
1019.5mb 14f
5:00am 4ft 11s 18 25 mph 1018.4mb 15f
4:00am 4ft 11s 16 20 mph 1016.9mb 16f
3:00am 3.5ft 10s 18 22 mph 1016.1mb 17f
2:00am 4ft 10s 18 22 mph 1015.4mb 17f
1:00am 4.5ft 11s 20 25 mph 1014.8mb 17f
Thu 02/26 11:00pm 4.5ft 10s 20 27 mph 1013.3mb 19f
10:00pm 4.5ft 10s 22 27 mph 1012.6mb 19f
9:00pm 4.5ft 11s 20 25 mph 1012.8mb 20f
8:00pm 4.5ft 10s 18 22 mph 1012.6mb 19f
7:00pm 4.5ft 10s 18 22 mph 1012.9mb 20f
6:00pm 4.5ft 10s 16 20 mph 1013mb 21f
5:00pm 4.5ft 10s 7 9 mph 1014.5mb 23f
4:00pm 5ft 10s 4 7 mph 1014.4mb 23f
3:00pm 5.5ft 10s 9 13 mph 1014mb 23f
2:00pm 4.5ft 10s 4 7 mph 1014.5mb 22f